Uniontown, Kentucky
Current Conditions -  °F | °C
As of 9:15 AM on Wednesday 22 Oct 2014 (Local Time) from KCUL Reporting Station
Clear Clear  
Wind Chill: 51°   Ceiling: Unl
Heat Index: 51°   Visibility: 10mi
Dew Point: 46°   Wind: 6mph
Humidity: 83%   Direction: 90°E
Pressure: 30.32"   Gusts: NA
Location:  37.78°N, 87.93°W
Report Text: KCUL 221415Z AUTO 09005KT 10SM CLR 11/08 A3032 RMK AO2 T01050077
Loading
Personal Weather Stations






























Interactive Weather Map
Tropical Storm Tracking
New forecast layout! Learn more

10-Day Weather Forecast

Advertisements
Track Severe Weather on mobile